createdAt,value
2023-05-10T00:00:24.785Z,21.40
2023-05-10T00:02:51.990Z,19.83
2023-05-10T00:05:19.232Z,20.87
2023-05-10T00:07:46.119Z,21.23
2023-05-10T00:10:13.659Z,21.38
2023-05-10T00:12:40.667Z,21.60
2023-05-10T00:15:08.437Z,21.77
2023-05-10T00:17:35.733Z,23.30
2023-05-10T00:20:03.138Z,23.48
2023-05-10T00:22:30.140Z,24.58
2023-05-10T00:24:57.053Z,23.60
2023-05-10T00:27:23.896Z,23.45
2023-05-10T00:29:50.971Z,25.30
2023-05-10T00:32:18.042Z,26.27
2023-05-10T00:34:45.024Z,26.30
2023-05-10T00:37:12.413Z,25.95
2023-05-10T00:39:39.391Z,27.23
2023-05-10T00:42:06.362Z,26.80
2023-05-10T00:44:33.808Z,25.90
2023-05-10T00:47:00.767Z,24.90
2023-05-10T00:49:27.975Z,24.08
2023-05-10T00:51:55.013Z,24.73
2023-05-10T00:54:22.052Z,23.33
2023-05-10T00:56:50.349Z,24.98
2023-05-10T00:59:18.929Z,25.65
2023-05-10T01:01:49.130Z,27.40
2023-05-10T01:04:16.799Z,29.40
2023-05-10T01:06:44.673Z,28.87
2023-05-10T01:09:12.725Z,28.27
2023-05-10T01:11:41.185Z,29.33
2023-05-10T01:14:08.596Z,30.45
2023-05-10T01:16:39.911Z,31.00
2023-05-10T01:19:17.212Z,31.67
2023-05-10T01:21:49.955Z,29.67
2023-05-10T01:24:45.181Z,30.50
2023-05-10T01:27:35.310Z,30.60
2023-05-10T01:30:14.987Z,30.38
2023-05-10T01:33:01.121Z,29.98
2023-05-10T01:35:44.284Z,28.98
2023-05-10T01:38:30.622Z,30.33
2023-05-10T01:41:18.632Z,31.95
2023-05-10T01:44:10.854Z,33.50
2023-05-10T01:46:39.655Z,34.47
2023-05-10T01:49:14.432Z,36.13
2023-05-10T01:51:53.062Z,37.22
2023-05-10T01:54:22.601Z,38.78
2023-05-10T01:56:56.186Z,38.95
2023-05-10T01:59:25.953Z,38.85
2023-05-10T02:01:55.258Z,38.72
2023-05-10T02:04:24.645Z,37.97
2023-05-10T02:06:54.401Z,36.77
2023-05-10T02:09:22.673Z,35.75
2023-05-10T02:11:51.705Z,38.15
2023-05-10T02:14:20.747Z,35.10
2023-05-10T02:16:49.130Z,35.35
2023-05-10T02:19:18.101Z,36.10
2023-05-10T02:21:46.356Z,37.72
2023-05-10T02:24:15.358Z,36.67
2023-05-10T02:26:44.499Z,35.60
2023-05-10T02:29:13.561Z,36.90
2023-05-10T02:31:40.886Z,37.42
2023-05-10T02:34:09.426Z,38.10
2023-05-10T02:36:37.374Z,37.00
2023-05-10T02:39:10.476Z,35.78
2023-05-10T02:41:38.976Z,35.05
2023-05-10T02:44:08.861Z,34.90
2023-05-10T02:46:36.774Z,33.42
2023-05-10T02:49:03.809Z,33.45
2023-05-10T02:51:34.722Z,32.47
2023-05-10T02:54:34.908Z,31.90
2023-05-10T02:57:06.127Z,31.65
2023-05-10T02:59:33.746Z,30.00
2023-05-10T03:02:01.838Z,29.97
2023-05-10T03:04:28.820Z,29.50
2023-05-10T03:06:57.468Z,29.48
2023-05-10T03:09:24.507Z,29.05
2023-05-10T03:11:51.335Z,29.75
2023-05-10T03:14:31.884Z,29.80
2023-05-10T03:17:11.211Z,29.30
2023-05-10T03:19:58.835Z,29.10
2023-05-10T03:22:38.208Z,28.90
2023-05-10T03:25:09.303Z,29.23
2023-05-10T03:27:39.851Z,29.27
2023-05-10T03:30:09.612Z,28.85
2023-05-10T03:32:36.824Z,30.27
2023-05-10T03:35:11.426Z,29.75
2023-05-10T03:37:38.565Z,31.25
2023-05-10T03:40:07.314Z,30.42
2023-05-10T03:42:36.713Z,31.15
2023-05-10T03:45:04.093Z,32.70
2023-05-10T03:47:31.035Z,33.58
2023-05-10T03:49:58.958Z,35.83
2023-05-10T03:52:26.318Z,33.65
2023-05-10T03:54:53.228Z,34.35
2023-05-10T03:57:20.243Z,33.45
2023-05-10T03:59:47.217Z,33.28
2023-05-10T04:02:14.091Z,33.60
2023-05-10T04:04:41.004Z,33.87
2023-05-10T04:07:08.235Z,33.60
2023-05-10T04:09:35.089Z,33.80
2023-05-10T04:12:03.330Z,34.00
2023-05-10T04:14:30.336Z,33.70
2023-05-10T04:16:57.250Z,33.05
2023-05-10T04:19:24.640Z,34.77
2023-05-10T04:21:51.641Z,32.97
2023-05-10T04:24:18.457Z,34.33
2023-05-10T04:26:45.310Z,35.42
2023-05-10T04:29:12.284Z,35.17
2023-05-10T04:31:39.511Z,35.17
2023-05-10T04:34:06.758Z,34.03
2023-05-10T04:36:34.901Z,35.05
2023-05-10T04:39:01.828Z,35.90
2023-05-10T04:41:28.620Z,36.63
2023-05-10T04:43:55.919Z,35.97
2023-05-10T04:46:22.774Z,36.03
2023-05-10T04:48:49.633Z,36.60
2023-05-10T04:51:16.540Z,36.15
2023-05-10T04:53:48.589Z,34.80
2023-05-10T04:56:24.654Z,35.45
2023-05-10T04:58:51.602Z,35.13
2023-05-10T05:01:18.546Z,35.88
2023-05-10T05:03:45.631Z,36.30
2023-05-10T05:06:12.536Z,38.83
2023-05-10T05:08:39.421Z,38.55
2023-05-10T05:11:06.390Z,40.15
2023-05-10T05:13:33.210Z,41.25
2023-05-10T05:16:02.698Z,40.75
2023-05-10T05:18:30.073Z,40.77
2023-05-10T05:20:57.159Z,41.88
2023-05-10T05:23:25.904Z,43.22
2023-05-10T05:25:53.788Z,42.45
2023-05-10T05:28:21.501Z,41.15
2023-05-10T05:30:48.546Z,42.17
2023-05-10T05:33:16.482Z,41.38
2023-05-10T05:35:48.557Z,42.10
2023-05-10T05:38:15.544Z,42.70
2023-05-10T05:40:42.390Z,43.35
2023-05-10T05:43:09.385Z,43.10
2023-05-10T05:45:36.274Z,42.80
2023-05-10T05:48:03.342Z,42.17
2023-05-10T05:50:30.250Z,42.08
2023-05-10T05:52:58.380Z,41.50
2023-05-10T05:55:26.978Z,41.70
2023-05-10T05:57:54.805Z,41.85
2023-05-10T06:00:22.324Z,41.33
2023-05-10T06:02:49.357Z,39.05
2023-05-10T06:05:16.565Z,40.30
2023-05-10T06:07:43.795Z,41.47
2023-05-10T06:10:11.148Z,39.30
2023-05-10T06:12:38.043Z,39.00
2023-05-10T06:15:05.171Z,39.88
2023-05-10T06:17:32.296Z,38.70
2023-05-10T06:19:59.239Z,38.47
2023-05-10T06:22:26.247Z,37.75
2023-05-10T06:24:53.275Z,35.75
2023-05-10T06:27:20.109Z,32.60
2023-05-10T06:29:46.965Z,31.75
2023-05-10T06:32:13.855Z,32.05
2023-05-10T06:34:40.817Z,28.70
2023-05-10T06:37:07.714Z,25.83
2023-05-10T06:39:34.561Z,24.52
2023-05-10T06:42:02.765Z,23.17
2023-05-10T06:44:33.024Z,22.08
2023-05-10T06:46:59.970Z,21.35
2023-05-10T06:49:27.198Z,20.13
2023-05-10T06:51:54.413Z,20.38
2023-05-10T06:54:21.396Z,18.50
2023-05-10T06:56:48.362Z,19.90
2023-05-10T06:59:16.265Z,18.08
2023-05-10T07:01:43.728Z,17.38
2023-05-10T07:04:10.673Z,15.40
2023-05-10T07:06:37.664Z,14.98
2023-05-10T07:09:04.645Z,13.75
2023-05-10T07:11:31.637Z,13.45
2023-05-10T07:13:58.666Z,13.15
2023-05-10T07:16:25.706Z,13.05
2023-05-10T07:18:54.011Z,12.07
2023-05-10T07:21:21.061Z,12.90
2023-05-10T07:23:48.294Z,11.35
2023-05-10T07:26:15.931Z,10.27
2023-05-10T07:28:43.074Z,9.77
2023-05-10T07:31:10.051Z,9.63
2023-05-10T07:33:36.967Z,9.95
2023-05-10T07:36:03.919Z,9.30
2023-05-10T07:38:30.796Z,8.52
2023-05-10T07:40:58.054Z,8.80
2023-05-10T07:43:24.914Z,9.87
2023-05-10T07:45:53.925Z,10.73
2023-05-10T07:48:22.275Z,10.80
2023-05-10T07:50:49.079Z,10.63
2023-05-10T07:53:15.935Z,10.95
2023-05-10T07:55:42.771Z,10.50
2023-05-10T07:58:09.719Z,10.68
2023-05-10T08:00:36.591Z,10.43
2023-05-10T08:03:03.771Z,10.38
2023-05-10T08:05:30.768Z,9.65
2023-05-10T08:07:57.805Z,9.77
2023-05-10T08:10:25.949Z,8.95
2023-05-10T08:12:52.906Z,9.23
2023-05-10T08:15:19.981Z,8.60
2023-05-10T08:17:46.766Z,9.00
2023-05-10T08:20:15.031Z,9.05
2023-05-10T08:22:42.024Z,8.23
2023-05-10T08:25:09.179Z,8.67
2023-05-10T08:27:35.997Z,8.85
2023-05-10T08:30:02.966Z,8.23
2023-05-10T08:32:30.372Z,8.48
2023-05-10T08:34:57.313Z,8.40
2023-05-10T08:37:24.988Z,8.13
2023-05-10T08:39:51.785Z,7.70
2023-05-10T08:42:23.088Z,7.85
2023-05-10T08:44:50.914Z,8.05
2023-05-10T08:47:19.683Z,7.40
2023-05-10T08:49:52.351Z,7.70
2023-05-10T08:52:19.710Z,7.90
2023-05-10T08:54:46.678Z,7.70
2023-05-10T08:57:13.741Z,7.80
2023-05-10T08:59:40.896Z,8.10
2023-05-10T09:02:11.618Z,7.38
2023-05-10T09:04:38.534Z,7.10
2023-05-10T09:07:05.744Z,6.95
2023-05-10T09:09:32.882Z,7.20
2023-05-10T09:12:00.138Z,6.90
2023-05-10T09:14:27.666Z,6.90
2023-05-10T09:16:56.244Z,6.00
2023-05-10T09:19:23.429Z,5.63
2023-05-10T09:21:50.672Z,5.53
2023-05-10T09:24:17.539Z,5.28
2023-05-10T09:26:52.365Z,5.50
2023-05-10T09:29:19.437Z,5.68
2023-05-10T09:31:55.571Z,5.55
2023-05-10T09:34:33.493Z,4.88
2023-05-10T09:37:02.571Z,5.70
2023-05-10T09:39:37.721Z,5.78
2023-05-10T09:42:06.678Z,6.20
2023-05-10T09:44:34.865Z,5.68
2023-05-10T09:47:02.843Z,5.50
2023-05-10T09:49:30.420Z,5.32
2023-05-10T09:52:08.616Z,4.70
2023-05-10T09:54:36.049Z,4.40
2023-05-10T09:57:03.326Z,4.03
2023-05-10T09:59:31.267Z,4.13
2023-05-10T10:02:13.691Z,4.63
2023-05-10T10:05:00.646Z,4.43
2023-05-10T10:07:48.724Z,4.40
2023-05-10T10:10:30.306Z,4.45
2023-05-10T10:13:16.697Z,4.40
2023-05-10T10:15:54.822Z,4.25
2023-05-10T10:18:28.098Z,4.38
2023-05-10T10:20:56.498Z,4.15
2023-05-10T10:23:24.514Z,3.63
2023-05-10T10:25:53.019Z,3.70
2023-05-10T10:28:39.983Z,3.30
2023-05-10T10:31:33.681Z,3.80
2023-05-10T10:34:27.169Z,4.20
2023-05-10T10:36:55.646Z,4.30
2023-05-10T10:39:22.734Z,4.28
2023-05-10T10:41:57.891Z,4.50
2023-05-10T10:44:27.572Z,4.82
2023-05-10T10:47:07.196Z,4.28
2023-05-10T10:49:38.690Z,4.35
2023-05-10T10:52:21.845Z,4.22
2023-05-10T10:55:01.300Z,4.50
2023-05-10T10:57:31.340Z,4.47
2023-05-10T11:00:21.295Z,5.38
2023-05-10T11:02:50.229Z,4.95
2023-05-10T11:05:36.031Z,5.20
2023-05-10T11:08:29.163Z,5.50
2023-05-10T11:11:03.160Z,5.40
2023-05-10T11:13:40.797Z,5.20
2023-05-10T11:16:18.166Z,5.65
2023-05-10T11:19:08.892Z,5.63
2023-05-10T11:21:50.086Z,5.88
2023-05-10T11:24:23.726Z,5.70
2023-05-10T11:26:54.756Z,6.20
2023-05-10T11:29:21.843Z,5.85
2023-05-10T11:31:50.227Z,5.20
2023-05-10T11:34:32.232Z,4.63
2023-05-10T11:36:59.597Z,4.68
2023-05-10T11:39:34.499Z,4.85
2023-05-10T11:42:01.661Z,6.43
2023-05-10T11:44:35.568Z,8.30
2023-05-10T11:47:03.175Z,8.25
2023-05-10T11:49:30.413Z,8.27
2023-05-10T11:52:10.156Z,7.50
2023-05-10T11:54:37.180Z,6.78
2023-05-10T11:57:04.835Z,6.82
2023-05-10T11:59:32.090Z,7.07
2023-05-10T12:01:59.023Z,6.70
2023-05-10T12:04:26.734Z,5.75
2023-05-10T12:06:53.843Z,5.10
2023-05-10T12:09:31.481Z,5.33
2023-05-10T12:12:03.760Z,4.90
2023-05-10T12:14:34.786Z,3.50
2023-05-10T12:17:01.634Z,2.70
2023-05-10T12:19:28.746Z,3.03
2023-05-10T12:21:55.888Z,3.80
2023-05-10T12:24:22.833Z,4.22
2023-05-10T12:27:07.566Z,4.30
2023-05-10T12:29:34.421Z,4.97
2023-05-10T12:32:01.460Z,6.38
2023-05-10T12:34:32.083Z,7.07
2023-05-10T12:37:00.091Z,7.30
2023-05-10T12:39:27.137Z,6.73
2023-05-10T12:41:54.221Z,7.72
2023-05-10T12:44:21.194Z,7.30
2023-05-10T12:46:48.644Z,6.97
2023-05-10T12:49:15.797Z,7.30
2023-05-10T12:51:42.791Z,7.60
2023-05-10T12:54:09.711Z,6.73
2023-05-10T12:56:36.528Z,7.63
2023-05-10T12:59:03.382Z,7.32
2023-05-10T13:01:30.639Z,7.53
2023-05-10T13:03:57.601Z,8.00
2023-05-10T13:06:24.366Z,7.35
2023-05-10T13:08:51.257Z,7.30
2023-05-10T13:11:18.434Z,7.00
2023-05-10T13:13:45.634Z,6.90
2023-05-10T13:16:12.444Z,6.93
2023-05-10T13:18:39.406Z,7.05
2023-05-10T13:21:06.743Z,7.15
2023-05-10T13:23:33.760Z,6.60
2023-05-10T13:26:01.048Z,6.82
2023-05-10T13:28:28.138Z,6.87
2023-05-10T13:30:55.230Z,6.85
2023-05-10T13:33:22.254Z,6.95
2023-05-10T13:35:49.030Z,6.63
2023-05-10T13:38:15.967Z,6.78
2023-05-10T13:40:43.104Z,7.00
2023-05-10T13:43:10.040Z,7.55
2023-05-10T13:45:36.906Z,7.70
2023-05-10T13:48:03.999Z,7.72
2023-05-10T13:50:31.409Z,8.02
2023-05-10T13:52:58.361Z,9.00
2023-05-10T13:55:25.591Z,8.70
2023-05-10T13:57:52.805Z,8.52
2023-05-10T14:00:19.843Z,8.57
2023-05-10T14:02:47.000Z,9.20
2023-05-10T14:05:14.065Z,8.35
2023-05-10T14:07:41.085Z,8.60
2023-05-10T14:10:08.332Z,8.82
2023-05-10T14:12:35.106Z,8.73
2023-05-10T14:15:02.314Z,9.32
2023-05-10T14:17:29.624Z,9.05
2023-05-10T14:19:56.460Z,8.80
2023-05-10T14:22:23.640Z,8.95
2023-05-10T14:24:51.209Z,9.05
2023-05-10T14:27:18.033Z,9.15
2023-05-10T14:29:44.831Z,8.98
2023-05-10T14:32:11.898Z,8.57
2023-05-10T14:34:38.838Z,9.00
2023-05-10T14:37:05.718Z,8.20
2023-05-10T14:39:34.203Z,7.97
2023-05-10T14:42:00.967Z,8.05
2023-05-10T14:44:28.529Z,8.13
2023-05-10T14:46:56.239Z,7.95
2023-05-10T14:49:25.605Z,7.18
2023-05-10T14:51:53.007Z,6.87
2023-05-10T14:54:20.012Z,7.17
2023-05-10T14:56:47.086Z,7.35
2023-05-10T14:59:13.884Z,7.53
2023-05-10T15:01:43.202Z,7.57
2023-05-10T15:04:10.464Z,8.35
2023-05-10T15:06:37.930Z,7.10
2023-05-10T15:09:04.844Z,7.53
2023-05-10T15:11:31.786Z,7.50
2023-05-10T15:13:58.832Z,6.97
2023-05-10T15:16:26.143Z,8.05
2023-05-10T15:18:53.187Z,7.85
2023-05-10T15:21:19.992Z,7.73
2023-05-10T15:23:47.550Z,7.78
2023-05-10T15:26:14.582Z,7.85
2023-05-10T15:28:41.429Z,8.32
2023-05-10T15:31:08.526Z,8.60
2023-05-10T15:33:35.598Z,7.85
2023-05-10T15:36:02.441Z,7.68
2023-05-10T15:38:29.484Z,8.00
2023-05-10T15:40:58.939Z,8.38
2023-05-10T15:43:25.789Z,8.18
2023-05-10T15:45:52.790Z,8.35
2023-05-10T15:48:19.576Z,7.97
2023-05-10T15:50:46.464Z,8.25
2023-05-10T15:53:13.538Z,8.32
2023-05-10T15:55:40.478Z,8.10
2023-05-10T15:58:07.388Z,8.38
2023-05-10T16:00:34.527Z,8.82
2023-05-10T16:03:01.592Z,9.00
2023-05-10T16:05:32.642Z,8.70
2023-05-10T16:08:00.606Z,8.43
2023-05-10T16:10:27.996Z,8.23
2023-05-10T16:12:55.579Z,8.13
2023-05-10T16:15:22.777Z,8.83
2023-05-10T16:17:49.842Z,7.75
2023-05-10T16:20:17.059Z,8.30
2023-05-10T16:22:44.514Z,8.35
2023-05-10T16:25:13.505Z,7.20
2023-05-10T16:27:40.939Z,8.15
2023-05-10T16:30:08.837Z,8.55
2023-05-10T16:32:35.948Z,7.50
2023-05-10T16:35:03.435Z,6.63
2023-05-10T16:37:30.445Z,6.78
2023-05-10T16:39:57.305Z,6.65
2023-05-10T16:42:25.157Z,6.35
2023-05-10T16:44:52.018Z,6.20
2023-05-10T16:47:18.913Z,6.82
2023-05-10T16:49:46.029Z,6.72
2023-05-10T16:52:13.317Z,6.72
2023-05-10T16:54:40.390Z,7.22
2023-05-10T16:57:08.548Z,6.45
2023-05-10T16:59:35.589Z,6.53
2023-05-10T17:02:04.989Z,6.65
2023-05-10T17:04:33.763Z,6.38
2023-05-10T17:07:00.689Z,6.72
2023-05-10T17:09:27.548Z,6.20
2023-05-10T17:11:54.537Z,6.05
2023-05-10T17:14:21.485Z,6.50
2023-05-10T17:16:48.447Z,6.33
2023-05-10T17:19:15.425Z,6.25
2023-05-10T17:21:42.224Z,6.13
2023-05-10T17:24:09.141Z,6.10
2023-05-10T17:26:36.054Z,6.63
2023-05-10T17:29:03.543Z,6.43
2023-05-10T17:31:30.412Z,6.65
2023-05-10T17:33:57.364Z,6.65
2023-05-10T17:36:24.340Z,6.78
2023-05-10T17:38:51.595Z,7.28
2023-05-10T17:41:18.511Z,7.03
2023-05-10T17:43:45.420Z,6.82
2023-05-10T17:46:12.919Z,6.68
2023-05-10T17:48:39.893Z,6.60
2023-05-10T17:51:06.917Z,6.78
2023-05-10T17:53:35.259Z,6.38
2023-05-10T17:56:02.257Z,6.28
2023-05-10T17:58:29.228Z,6.20
2023-05-10T18:00:57.667Z,6.90
2023-05-10T18:03:24.688Z,6.40
2023-05-10T18:05:51.911Z,6.60
2023-05-10T18:08:22.729Z,6.40
2023-05-10T18:10:49.741Z,6.53
2023-05-10T18:13:16.883Z,6.53
2023-05-10T18:15:43.868Z,6.40
2023-05-10T18:18:11.116Z,6.85
2023-05-10T18:20:38.097Z,6.30
2023-05-10T18:23:05.110Z,6.78
2023-05-10T18:25:32.087Z,7.25
2023-05-10T18:27:59.143Z,6.97
2023-05-10T18:30:26.142Z,7.03
2023-05-10T18:32:53.835Z,7.57
2023-05-10T18:35:21.501Z,7.57
2023-05-10T18:37:49.561Z,7.82
2023-05-10T18:40:17.257Z,7.18
2023-05-10T18:42:46.599Z,8.00
2023-05-10T18:45:13.725Z,7.63
2023-05-10T18:47:40.611Z,7.93
2023-05-10T18:50:08.196Z,7.47
2023-05-10T18:52:36.825Z,7.55
2023-05-10T18:55:04.273Z,7.97
2023-05-10T18:57:31.666Z,7.68
2023-05-10T18:59:58.714Z,7.90
2023-05-10T19:02:26.752Z,7.63
2023-05-10T19:04:54.008Z,8.20
2023-05-10T19:07:20.906Z,7.88
2023-05-10T19:09:47.817Z,7.82
2023-05-10T19:12:14.966Z,7.93
2023-05-10T19:14:41.860Z,8.10
2023-05-10T19:17:08.710Z,8.55
2023-05-10T19:19:36.625Z,8.68
2023-05-10T19:22:03.634Z,8.75
2023-05-10T19:24:30.623Z,9.05
2023-05-10T19:26:57.945Z,9.10
2023-05-10T19:29:24.998Z,9.07
2023-05-10T19:31:52.466Z,9.57
2023-05-10T19:34:20.468Z,9.73
2023-05-10T19:36:47.448Z,9.55
2023-05-10T19:39:14.422Z,9.75
2023-05-10T19:41:41.484Z,10.10
2023-05-10T19:44:08.339Z,10.20
2023-05-10T19:46:35.287Z,10.27
2023-05-10T19:49:02.421Z,9.70
2023-05-10T19:51:29.327Z,9.80
2023-05-10T19:53:56.099Z,9.85
2023-05-10T19:56:23.184Z,9.80
2023-05-10T19:58:50.156Z,10.25
2023-05-10T20:01:17.191Z,10.38
2023-05-10T20:03:44.096Z,10.07
2023-05-10T20:06:11.080Z,9.65
2023-05-10T20:08:38.041Z,10.73
2023-05-10T20:11:05.099Z,10.82
2023-05-10T20:13:32.148Z,10.65
2023-05-10T20:15:59.852Z,10.80
2023-05-10T20:18:27.388Z,10.30
2023-05-10T20:20:55.401Z,11.15
2023-05-10T20:23:22.488Z,10.38
2023-05-10T20:25:49.690Z,10.82
2023-05-10T20:28:20.869Z,11.25
2023-05-10T20:30:47.746Z,11.70
2023-05-10T20:33:15.877Z,11.93
2023-05-10T20:35:42.828Z,11.70
2023-05-10T20:38:09.640Z,11.50
2023-05-10T20:40:36.761Z,12.18
2023-05-10T20:43:05.524Z,11.98
2023-05-10T20:45:32.866Z,12.33
2023-05-10T20:48:00.447Z,11.93
2023-05-10T20:50:27.656Z,11.90
2023-05-10T20:52:54.592Z,12.32
2023-05-10T20:55:21.608Z,13.15
2023-05-10T20:57:48.438Z,12.33
2023-05-10T21:00:15.849Z,12.68
2023-05-10T21:02:44.701Z,12.65
2023-05-10T21:05:11.773Z,12.75
2023-05-10T21:07:39.428Z,12.70
2023-05-10T21:10:11.319Z,12.80
2023-05-10T21:12:38.146Z,12.80
2023-05-10T21:15:05.330Z,13.15
2023-05-10T21:17:32.506Z,13.65
2023-05-10T21:19:59.351Z,12.93
2023-05-10T21:22:26.917Z,13.25
2023-05-10T21:24:54.039Z,13.52
2023-05-10T21:27:20.950Z,12.57
2023-05-10T21:29:47.814Z,13.45
2023-05-10T21:32:15.110Z,12.57
2023-05-10T21:34:42.092Z,13.38
2023-05-10T21:37:09.205Z,13.27
2023-05-10T21:39:36.472Z,12.15
2023-05-10T21:42:03.866Z,12.77
2023-05-10T21:44:31.853Z,13.45
2023-05-10T21:46:58.796Z,14.02
2023-05-10T21:49:25.725Z,13.25
2023-05-10T21:51:52.748Z,14.00
2023-05-10T21:54:19.704Z,13.70
2023-05-10T21:56:46.688Z,13.50
2023-05-10T21:59:13.899Z,13.55
2023-05-10T22:01:41.293Z,13.15
2023-05-10T22:04:08.158Z,14.25
2023-05-10T22:06:35.589Z,13.27
2023-05-10T22:09:02.511Z,13.68
2023-05-10T22:11:29.346Z,13.25
2023-05-10T22:13:56.259Z,13.25
2023-05-10T22:16:23.201Z,13.10
2023-05-10T22:18:50.144Z,12.68
2023-05-10T22:21:17.069Z,12.98
2023-05-10T22:23:43.973Z,12.38
2023-05-10T22:26:11.038Z,12.90
2023-05-10T22:28:37.928Z,12.38
2023-05-10T22:31:10.496Z,12.77
2023-05-10T22:33:37.652Z,13.48
2023-05-10T22:36:05.154Z,13.20
2023-05-10T22:38:32.091Z,12.82
2023-05-10T22:40:58.956Z,13.57
2023-05-10T22:43:25.921Z,13.20
2023-05-10T22:45:53.259Z,13.57
2023-05-10T22:48:20.903Z,13.43
2023-05-10T22:50:47.767Z,13.57
2023-05-10T22:53:14.630Z,12.52
2023-05-10T22:55:41.736Z,12.47
2023-05-10T22:58:08.723Z,13.15
2023-05-10T23:00:35.670Z,13.18
2023-05-10T23:03:02.727Z,12.20
2023-05-10T23:05:29.742Z,12.52
2023-05-10T23:07:56.737Z,12.40
2023-05-10T23:10:23.744Z,12.85
2023-05-10T23:12:50.680Z,12.32
2023-05-10T23:15:17.630Z,12.18
2023-05-10T23:17:44.628Z,11.98
2023-05-10T23:20:12.255Z,11.43
2023-05-10T23:22:39.430Z,11.90
2023-05-10T23:25:06.977Z,12.18
2023-05-10T23:27:33.978Z,13.02
2023-05-10T23:30:01.643Z,13.35
2023-05-10T23:32:28.488Z,12.70
2023-05-10T23:34:55.517Z,12.50
2023-05-10T23:37:22.398Z,13.47
2023-05-10T23:39:49.265Z,14.43
2023-05-10T23:42:16.506Z,13.35
2023-05-10T23:44:43.487Z,13.83
2023-05-10T23:47:10.388Z,14.30
2023-05-10T23:49:38.144Z,14.43
2023-05-10T23:52:05.034Z,13.80
2023-05-10T23:54:31.920Z,13.70
2023-05-10T23:56:58.896Z,13.73
2023-05-10T23:59:25.971Z,13.40
